Reynolds, IN (47980)

6:16 AM EDT on July 05, 2015 (GMT -0400)
Bluewater Drive | | Change Station
CLOSE
Current Station
Personal Weather Station
Location: Monticello, IN
Elevation: 623 ft
Nearby Weather Stations

Elev 623 ft 40.76 °N, 86.75 °W | Updated 11 minutes ago

Fog
Fog
63.0 °F
Feels Like 63.0 °F
N
0.0
Wind Variable Wind from WNW

Today
High -- | Low -- °F
--% Chance of Precip.
Yesterday
High -- | Low -- °F
Precip. -- in
6:21 AM 9:21 PM
Waning Gibbous, 86% visible
Pressure 30.09 in
Visibility 4.0 miles
Clouds Clear
Dew Point 62 °F
Humidity 98%
Rainfall 0.00 in
Snow Depth Not available.
UV 0 out of 12
Pollen 3.30 out of 12
Air Quality Not available.
Flu Activity Not available.
METAR KRZL 050955Z AUTO 00000KT 4SM BR CLR 16/16 A3009 RMK AO2

More Conditions Fewer Conditions

Pressure 30.09 in
Visibility 4.0 miles
Clouds Clear
Dew Point 62 °F
Humidity 98%
Rainfall 0.00 in
Snow Depth Not available.
UV 0 out of 12
Pollen 3.30 out of 12
Air Quality Not available.
Flu Activity Not available.
METAR KRZL 050955Z AUTO 00000KT 4SM BR CLR 16/16 A3009 RMK AO2

More Conditions Fewer Conditions

10-Day Weather Forecast

×

Almanac

Astronomy

Jul. 05, 2015 Rise Set
Actual Time
Civil Twilight
Nautical Twilight
Astronomical Twilight
Moon
Length of Visible Light
Length of Day
Tomorrow will be .
, % of the Moon is Illuminated

Today's Extremes

State Highs State Lows

Community

WunderPhotos

Upload Photos

1,835,218 photos uploaded!

WunderBlogs® & News

Nearby

Air Quality

  Air Quality AQ Index Pollutant
Not available.

Snow Depth

Station Depth Elevation

Earthquake Activity

City Distance Mag. Time & Date
Minimum magnitude displayed is 2.5.

Coastal Water Temperatures

Place Temperature

Stations

Nearby Weather Stations

Station Location Temp. Windchill Dew Point Humidity Wind Precip. Elev Updated Type